»·PEaware :: N230WA KLAX-KSNA

N230WA :: KLAX-KSNA

FLIGHT INFORMATION

Flight Status: Arrived
Operator: Privately registered:
United States
More flights under this callsign
Pilot: Ram S. (22982)
Aircraft: CIRRUS VISIONJET
(SF50)
More flights by this aircraft type
Origin: KLAX Los Angeles Intl
United States
Destination: KSNA John Wayne-Orange Co
United States
More flights between these airports :: More routes between these airports
Route: +LAXX1 SLI KSNA
File this flight plan on PilotEdge
Remarks: I6 Rating
Altitude:
(Current/Filed)
4,000ft
Speed:
(Current/Filed)
190kts
Departed: 02-Apr-19 10:27 AM
Arrived: 02-Apr-19 11:02 AM
Distance/Time
Traveled:
31nm/0:35
Distance/Time
To Go:
Arrived

Flight Plot

Page will automatically refresh every two minutes.


Map Options




Map Legend


Flown Route
Filed Route
Departure Airport
Arrival Airport
Navaid (VOR, NDB)
Fix

Horizontal Profiles

Position Reports

Time Latitude Longitude Heading Altitude Ground
Speed
02-Apr-19 10:09 33.935341 -118.382376 281 129ft 0kts
02-Apr-19 10:10 33.935341 -118.382376 281 129ft 0kts
02-Apr-19 10:11 33.935341 -118.382376 281 129ft 0kts
02-Apr-19 10:12 33.935341 -118.382376 281 129ft 0kts
02-Apr-19 10:13 33.935341 -118.382376 281 129ft 0kts
02-Apr-19 10:14 33.935341 -118.382376 281 129ft 0kts
02-Apr-19 10:15 33.935341 -118.382376 281 129ft 0kts
02-Apr-19 10:16 33.935341 -118.382376 281 129ft 0kts
02-Apr-19 10:17 33.935341 -118.382376 281 129ft 0kts
02-Apr-19 10:18 33.935341 -118.382376 281 129ft 0kts
02-Apr-19 10:19 33.935341 -118.382376 281 129ft 0kts
02-Apr-19 10:20 33.935426 -118.382420 359 129ft 0kts
02-Apr-19 10:21 33.935702 -118.382436 351 129ft 3kts
02-Apr-19 10:22 33.936248 -118.382713 342 129ft 2kts
02-Apr-19 10:23 33.936362 -118.382749 347 129ft 0kts
02-Apr-19 10:24 33.936362 -118.382749 347 129ft 0kts
02-Apr-19 10:25 33.936652 -118.382796 352 129ft 7kts
02-Apr-19 10:26 33.935615 -118.402626 265 651ft 130kts
02-Apr-19 10:27 33.932664 -118.456182 259 3450ft 158kts
02-Apr-19 10:28 33.907440 -118.503000 231 4669ft 185kts
02-Apr-19 10:29 33.866725 -118.543348 193 5009ft 204kts
02-Apr-19 10:30 33.810407 -118.557736 192 5000ft 209kts
02-Apr-19 10:31 33.753403 -118.572177 192 5000ft 210kts
02-Apr-19 10:32 33.697453 -118.586331 192 4997ft 201kts
02-Apr-19 10:33 33.656785 -118.559672 112 5000ft 197kts
02-Apr-19 10:34 33.635436 -118.495777 112 5000ft 212kts
02-Apr-19 10:35 33.613178 -118.429089 112 5000ft 216kts
02-Apr-19 10:36 33.590704 -118.361709 112 5000ft 218kts
02-Apr-19 10:37 33.593778 -118.292053 71 4999ft 214kts
02-Apr-19 10:38 33.615635 -118.227288 61 4847ft 207kts
02-Apr-19 10:39 33.649146 -118.171973 51 4646ft 204kts
02-Apr-19 10:40 33.684302 -118.118334 51 4446ft 204kts
02-Apr-19 10:41 33.730533 -118.080906 27 4245ft 202kts
02-Apr-19 10:42 33.778612 -118.047727 53 3997ft 195kts
02-Apr-19 10:43 33.806613 -117.993748 57 3999ft 186kts
02-Apr-19 10:44 33.832052 -117.941153 63 3999ft 179kts
02-Apr-19 10:45 33.853790 -117.888007 65 3998ft 173kts
02-Apr-19 10:46 33.871790 -117.835432 67 3999ft 167kts
02-Apr-19 10:47 33.889172 -117.784263 67 3999ft 163kts
02-Apr-19 10:48 33.910304 -117.737239 62 3999ft 158kts
02-Apr-19 10:49 33.939529 -117.701267 27 4000ft 156kts
02-Apr-19 10:50 33.978076 -117.676090 29 3999ft 159kts
02-Apr-19 10:51 33.992058 -117.705601 208 4004ft 158kts
02-Apr-19 10:52 33.949095 -117.707245 188 3999ft 160kts
02-Apr-19 10:53 33.909114 -117.724623 199 3998ft 146kts
02-Apr-19 10:54 33.873607 -117.743556 206 3994ft 128kts
02-Apr-19 10:55 33.845292 -117.761156 207 3674ft 114kts
02-Apr-19 10:56 33.815534 -117.780041 207 3067ft 128kts
02-Apr-19 10:57 33.783613 -117.800342 207 2359ft 130kts
02-Apr-19 10:58 33.751710 -117.820620 207 1645ft 129kts
02-Apr-19 10:59 33.719885 -117.840826 207 938ft 129kts
02-Apr-19 11:00 33.691412 -117.858882 207 312ft 87kts
02-Apr-19 11:01 33.675833 -117.869006 253 60ft 18kts
02-Apr-19 11:02 33.675957 -117.869746 299 60ft 0kts
02-Apr-19 11:03 33.675936 -117.870858 309 60ft 0kts
02-Apr-19 11:04 33.675936 -117.870858 309 60ft 0kts
02-Apr-19 11:05 33.675936 -117.870858 309 60ft 0kts
02-Apr-19 11:06 33.675936 -117.870858 309 60ft 0kts
02-Apr-19 11:07 33.675936 -117.870858 309 60ft 0kts
02-Apr-19 11:08 33.675936 -117.870858 309 60ft 0kts
02-Apr-19 11:09 33.675936 -117.870858 309 60ft 0kts
02-Apr-19 11:10 33.675936 -117.870858 309 60ft 0kts
02-Apr-19 11:11 33.675936 -117.870858 309 60ft 0kts
02-Apr-19 11:12 33.675936 -117.870858 309 60ft 0kts
02-Apr-19 11:13 33.675936 -117.870858 309 60ft 0kts
02-Apr-19 11:14 33.675936 -117.870858 309 60ft 0kts
02-Apr-19 11:15 33.675936 -117.870858 309 60ft 0kts

Navigation Log

Ident Type
Flight plan parsing failed, navigation log unavailable